Weather at Soure Airport

Public forecast

Using degrees Celsius for public forecast. Weather courtesy of forecast.io.

Closest aviation weather report (METAR) to Soure Airport

Closest report is Val de Cans/Júlio Cezar Ribeiro International Airport, 40.9 nm (75.8 km) S. Retrieved 2021/07/23 14:00 UTC (52 minutes ago):

SBBE 231400Z 12009KT 050V110 9999 SCT026 30/23 Q1016

Closest aviation forecast (TAF) to Soure Airport

Forecast is more than 6 hours old.

Closest forecast is Val de Cans/Júlio Cezar Ribeiro International Airport, 40.9 nm (75.8 km) S. Retrieved 2021/07/23 06:00 UTC (9 hours ago):

TAF SBBE 230230Z 2306/2406 10005KT 8000 SCT018 TN23/2309Z TX32/2317Z BECMG 2309/2311 07005KT 9999 SCT016 BECMG 2313/2315 05010KT SCT030 BECMG 2316/2318 01010KT 8000 BKN035 FEW045TCU PROB40 2318/2322 05015KT 5000 TSRA BKN017 FEW025CB BECMG 2400/2402 08003KT RMK PGU